createdAt,value
2019-01-29T00:01:39.349Z,99735.38
2019-01-29T00:04:07.086Z,99734.67
2019-01-29T00:06:34.932Z,99743.17
2019-01-29T00:09:04.393Z,99742.86
2019-01-29T00:11:32.512Z,99743.48
2019-01-29T00:14:00.416Z,99733.35
2019-01-29T00:16:28.149Z,99739.92
2019-01-29T00:18:55.921Z,99740.38
2019-01-29T00:21:23.678Z,99749.45
2019-01-29T00:23:51.488Z,99752.19
2019-01-29T00:26:19.219Z,99747.86
2019-01-29T00:28:46.961Z,99752.87
2019-01-29T00:31:14.721Z,99764.83
2019-01-29T00:33:42.529Z,99756.64
2019-01-29T00:36:10.269Z,99756.95
2019-01-29T00:38:37.992Z,99761.98
2019-01-29T00:41:05.772Z,99760.46
2019-01-29T00:43:33.510Z,99756.34
2019-01-29T00:46:01.248Z,99767.49
2019-01-29T00:48:29.069Z,99761.65
2019-01-29T00:50:56.804Z,99761.96
2019-01-29T00:53:24.576Z,99772.06
2019-01-29T00:55:52.345Z,99767.16
2019-01-29T00:58:20.065Z,99765.71
2019-01-29T01:00:47.833Z,99773.94
2019-01-29T01:03:15.652Z,99772.16
2019-01-29T01:05:43.406Z,99782.07
2019-01-29T01:08:11.230Z,99778.33
2019-01-29T01:10:38.972Z,99779.05
2019-01-29T01:13:06.718Z,99782.95
2019-01-29T01:15:34.500Z,99783.63
2019-01-29T01:18:02.564Z,99786.15
2019-01-29T01:20:30.324Z,99784.03
2019-01-29T01:22:58.072Z,99713.66
2019-01-29T01:25:25.804Z,99690.20
2019-01-29T01:27:53.574Z,99797.25
2019-01-29T01:30:21.308Z,99794.20
2019-01-29T01:32:49.045Z,99802.90
2019-01-29T01:35:17.196Z,99775.03
2019-01-29T01:37:44.909Z,99761.95
2019-01-29T01:40:14.488Z,99805.42
2019-01-29T01:42:42.237Z,99730.05
2019-01-29T01:45:10.138Z,99811.39
2019-01-29T01:47:37.879Z,99810.87
2019-01-29T01:50:05.791Z,99809.61
2019-01-29T01:52:33.540Z,99813.36
2019-01-29T01:55:01.355Z,99819.14
2019-01-29T01:57:29.100Z,99815.22
2019-01-29T01:59:56.840Z,99818.50
2019-01-29T02:02:24.584Z,99821.47
2019-01-29T02:04:52.660Z,99820.12
2019-01-29T02:07:20.388Z,99822.33
2019-01-29T02:09:48.204Z,99825.45
2019-01-29T02:12:15.950Z,99819.04
2019-01-29T02:14:43.732Z,99828.84
2019-01-29T02:17:11.463Z,99826.17
2019-01-29T02:19:39.486Z,99824.52
2019-01-29T02:22:07.224Z,99825.33
2019-01-29T02:24:34.973Z,99818.11
2019-01-29T02:27:02.703Z,99822.09
2019-01-29T02:29:30.475Z,99828.44
2019-01-29T02:31:58.216Z,99619.86
2019-01-29T02:34:25.940Z,99828.18
2019-01-29T02:36:53.682Z,99831.36
2019-01-29T02:39:21.416Z,99829.13
2019-01-29T02:41:49.148Z,99831.24
2019-01-29T02:44:16.889Z,99839.98
2019-01-29T02:46:44.619Z,99832.13
2019-01-29T02:49:12.345Z,99835.55
2019-01-29T02:51:40.080Z,99835.62
2019-01-29T02:54:08.072Z,99837.78
2019-01-29T02:56:35.821Z,99843.23
2019-01-29T02:59:03.632Z,99847.98
2019-01-29T03:01:31.367Z,99844.47
2019-01-29T03:03:59.136Z,99649.73
2019-01-29T03:06:27.123Z,99850.68
2019-01-29T03:08:54.879Z,99847.66
2019-01-29T03:11:22.633Z,99592.89
2019-01-29T03:13:50.380Z,99855.25
2019-01-29T03:16:18.402Z,99848.23
2019-01-29T03:18:46.132Z,99859.77
2019-01-29T03:21:13.871Z,99871.61
2019-01-29T03:23:41.684Z,99868.09
2019-01-29T03:26:09.433Z,99868.89
2019-01-29T03:28:37.214Z,99871.16
2019-01-29T03:31:04.953Z,99878.58
2019-01-29T03:33:32.694Z,99868.89
2019-01-29T03:36:00.443Z,99854.63
2019-01-29T03:38:28.244Z,99855.56
2019-01-29T03:40:55.997Z,99858.67
2019-01-29T03:43:23.744Z,99869.41
2019-01-29T03:45:51.529Z,99871.25
2019-01-29T03:48:19.571Z,99884.63
2019-01-29T03:50:47.358Z,99883.42
2019-01-29T03:53:15.080Z,99881.95
2019-01-29T03:55:42.870Z,99888.18
2019-01-29T03:58:10.732Z,99887.92
2019-01-29T04:00:38.480Z,99889.38
2019-01-29T04:03:06.204Z,99890.57
2019-01-29T04:05:33.927Z,99899.20
2019-01-29T04:08:01.710Z,99902.77
2019-01-29T04:10:29.533Z,99900.48
2019-01-29T04:12:57.569Z,99906.88
2019-01-29T04:15:25.346Z,99909.92
2019-01-29T04:17:54.829Z,99916.59
2019-01-29T04:20:22.623Z,99913.05
2019-01-29T04:22:50.360Z,99913.48
2019-01-29T04:25:18.102Z,99912.22
2019-01-29T04:27:45.867Z,99907.21
2019-01-29T04:30:14.782Z,99916.97
2019-01-29T04:32:42.536Z,99920.89
2019-01-29T04:35:10.340Z,99916.91
2019-01-29T04:37:38.135Z,99919.56
2019-01-29T04:40:06.672Z,99920.58
2019-01-29T04:42:34.400Z,99924.59
2019-01-29T04:45:02.183Z,99921.47
2019-01-29T04:47:29.968Z,99929.53
2019-01-29T04:49:57.698Z,99921.34
2019-01-29T04:52:25.477Z,99921.52
2019-01-29T04:54:53.269Z,99924.64
2019-01-29T04:57:21.008Z,99929.20
2019-01-29T04:59:49.009Z,99931.80
2019-01-29T05:02:16.758Z,99933.46
2019-01-29T05:04:44.583Z,99935.23
2019-01-29T05:07:12.375Z,99941.95
2019-01-29T05:09:41.405Z,99746.97
2019-01-29T05:12:09.184Z,99947.16
2019-01-29T05:14:36.936Z,99951.77
2019-01-29T05:17:04.696Z,99948.11
2019-01-29T05:19:32.440Z,99948.67
2019-01-29T05:22:00.447Z,99941.50
2019-01-29T05:24:28.185Z,99944.62
2019-01-29T05:26:55.937Z,99948.67
2019-01-29T05:29:23.677Z,99950.52
2019-01-29T05:31:51.416Z,99953.55
2019-01-29T05:34:19.194Z,99948.67
2019-01-29T05:36:47.220Z,99699.48
2019-01-29T05:39:15.293Z,99948.55
2019-01-29T05:41:43.213Z,99949.11
2019-01-29T05:44:11.065Z,99954.90
2019-01-29T05:46:38.813Z,99949.17
2019-01-29T05:49:08.793Z,99953.56
2019-01-29T05:51:36.895Z,99917.25
2019-01-29T05:54:04.753Z,99954.63
2019-01-29T05:56:32.680Z,99964.22
2019-01-29T05:59:00.517Z,99959.84
2019-01-29T06:01:28.276Z,99958.50
2019-01-29T06:03:56.013Z,99959.91
2019-01-29T06:06:23.985Z,99957.63
2019-01-29T06:08:51.912Z,99963.82
2019-01-29T06:11:19.878Z,99965.60
2019-01-29T06:13:47.736Z,99968.28
2019-01-29T06:16:15.974Z,99970.60
2019-01-29T06:18:43.907Z,99975.76
2019-01-29T06:21:11.673Z,99975.86
2019-01-29T06:23:39.455Z,99977.59
2019-01-29T06:26:07.403Z,99978.80
2019-01-29T06:28:35.161Z,99976.75
2019-01-29T06:31:03.257Z,99978.47
2019-01-29T06:33:31.001Z,99987.68
2019-01-29T06:35:58.769Z,99983.30
2019-01-29T06:38:26.553Z,99982.91
2019-01-29T06:40:54.307Z,99987.79
2019-01-29T06:43:22.258Z,99998.38
2019-01-29T06:45:50.010Z,99996.94
2019-01-29T06:48:17.852Z,100001.70
2019-01-29T06:50:45.658Z,99976.44
2019-01-29T06:53:13.505Z,99998.84
2019-01-29T06:55:41.245Z,100009.93
2019-01-29T06:58:09.088Z,100003.16
2019-01-29T07:00:36.832Z,100005.77
2019-01-29T07:03:04.813Z,100003.61
2019-01-29T07:05:32.560Z,100020.85
2019-01-29T07:08:00.515Z,100014.25
2019-01-29T07:10:28.360Z,100024.52
2019-01-29T07:12:56.103Z,100015.70
2019-01-29T07:15:42.001Z,100014.36
2019-01-29T07:18:28.852Z,100019.13
2019-01-29T07:20:56.607Z,99983.22
2019-01-29T07:23:24.353Z,100022.41
2019-01-29T07:25:52.186Z,100020.16
2019-01-29T07:28:19.928Z,100022.88
2019-01-29T07:30:47.761Z,100024.64
2019-01-29T07:33:15.512Z,100027.70
2019-01-29T07:35:43.268Z,100023.74
2019-01-29T07:38:11.621Z,100029.41
2019-01-29T07:40:39.398Z,100029.47
2019-01-29T07:43:07.148Z,100023.25
2019-01-29T07:45:34.928Z,100029.09
2019-01-29T07:48:02.688Z,100032.24
2019-01-29T07:50:30.788Z,100025.14
2019-01-29T07:52:58.559Z,100028.70
2019-01-29T07:55:26.321Z,100032.12
2019-01-29T07:57:54.086Z,100033.01
2019-01-29T08:00:21.837Z,99996.24
2019-01-29T08:02:49.644Z,100031.19
2019-01-29T08:05:17.394Z,100035.67
2019-01-29T08:07:45.163Z,100032.80
2019-01-29T08:10:12.996Z,99829.03
2019-01-29T08:12:40.789Z,100040.91
2019-01-29T08:15:08.820Z,100046.23
2019-01-29T08:17:36.700Z,100054.91
2019-01-29T08:20:04.993Z,100056.32
2019-01-29T08:22:32.744Z,100060.38
2019-01-29T08:25:01.646Z,100072.35
2019-01-29T08:27:30.296Z,100068.14
2019-01-29T08:29:58.138Z,100042.40
2019-01-29T08:32:25.885Z,100067.23
2019-01-29T08:34:53.700Z,100071.63
2019-01-29T08:37:21.487Z,100072.35
2019-01-29T08:39:49.286Z,100082.23
2019-01-29T08:42:17.047Z,100098.33
2019-01-29T08:44:45.118Z,100078.56
2019-01-29T08:47:12.877Z,100077.95
2019-01-29T08:49:40.616Z,100084.22
2019-01-29T08:52:08.371Z,100083.73
2019-01-29T08:54:36.128Z,99894.70
2019-01-29T08:57:03.902Z,100036.06
2019-01-29T08:59:31.787Z,100085.89
2019-01-29T09:01:59.565Z,100097.94
2019-01-29T09:04:27.316Z,100096.11
2019-01-29T09:06:55.088Z,100076.30
2019-01-29T09:09:23.312Z,100095.20
2019-01-29T09:11:51.339Z,100106.20
2019-01-29T09:14:21.892Z,100105.70
2019-01-29T09:16:49.651Z,100096.77
2019-01-29T09:19:17.432Z,100103.80
2019-01-29T09:21:45.301Z,100097.70
2019-01-29T09:24:13.045Z,100098.20
2019-01-29T09:26:40.911Z,100097.21
2019-01-29T09:29:17.382Z,100095.38
2019-01-29T09:31:38.156Z,100097.59
2019-01-29T09:34:05.894Z,100100.98
2019-01-29T09:36:34.134Z,100104.65
2019-01-29T09:39:01.945Z,100095.25
2019-01-29T09:41:29.712Z,100106.23
2019-01-29T09:43:57.477Z,100102.69
2019-01-29T09:46:25.237Z,100106.68
2019-01-29T09:48:53.076Z,100100.02
2019-01-29T09:51:20.818Z,100100.47
2019-01-29T09:53:48.572Z,100100.03
2019-01-29T09:56:16.760Z,100101.91
2019-01-29T09:58:44.776Z,100102.11
2019-01-29T10:01:12.522Z,100102.63
2019-01-29T10:03:40.349Z,100102.96
2019-01-29T10:06:08.111Z,100098.06
2019-01-29T10:08:35.875Z,100094.06
2019-01-29T10:11:03.661Z,100099.38
2019-01-29T10:13:31.425Z,100097.63
2019-01-29T10:15:59.264Z,100093.55
2019-01-29T10:18:27.143Z,100090.38
2019-01-29T10:20:55.283Z,100087.21
2019-01-29T10:23:23.211Z,100089.88
2019-01-29T10:25:51.049Z,100090.69
2019-01-29T10:28:18.996Z,99874.82
2019-01-29T10:30:46.753Z,100084.87
2019-01-29T10:33:14.598Z,100079.93
2019-01-29T10:35:42.645Z,100076.36
2019-01-29T10:38:10.614Z,100074.11
2019-01-29T10:40:38.371Z,100070.11
2019-01-29T10:43:06.222Z,100075.45
2019-01-29T10:45:33.996Z,100067.89
2019-01-29T10:48:01.764Z,100069.66
2019-01-29T10:50:29.537Z,99939.78
2019-01-29T10:52:57.304Z,100066.81
2019-01-29T10:55:25.065Z,100073.41
2019-01-29T10:57:52.885Z,100066.23
2019-01-29T11:00:21.658Z,100064.01
2019-01-29T11:02:49.426Z,100065.27
2019-01-29T11:05:17.621Z,100060.84
2019-01-29T11:07:46.493Z,100057.20
2019-01-29T11:10:14.377Z,100057.08
2019-01-29T11:12:42.117Z,100060.16
2019-01-29T11:15:11.618Z,100059.53
2019-01-29T11:17:42.564Z,100060.42
2019-01-29T11:20:11.208Z,100060.11
2019-01-29T11:22:40.293Z,100054.70
2019-01-29T11:25:09.194Z,100058.63
2019-01-29T11:27:37.282Z,100055.03
2019-01-29T11:30:05.216Z,100051.45
2019-01-29T11:32:32.987Z,100048.28
2019-01-29T11:35:00.757Z,100050.43
2019-01-29T11:37:28.520Z,100045.14
2019-01-29T11:39:56.257Z,100043.81
2019-01-29T11:42:24.020Z,100043.16
2019-01-29T11:44:51.774Z,99900.64
2019-01-29T11:47:19.539Z,99988.80
2019-01-29T11:49:47.299Z,100036.48
2019-01-29T11:52:15.509Z,100039.53
2019-01-29T11:54:43.341Z,100038.58
2019-01-29T11:57:11.079Z,100031.85
2019-01-29T11:59:38.834Z,100036.72
2019-01-29T12:02:06.583Z,100038.13
2019-01-29T12:04:34.681Z,100037.11
2019-01-29T12:07:02.440Z,100041.09
2019-01-29T12:09:30.220Z,100037.02
2019-01-29T12:11:57.978Z,100037.39
2019-01-29T12:14:25.719Z,100040.00
2019-01-29T12:16:53.463Z,100040.86
2019-01-29T12:19:21.490Z,100039.77
2019-01-29T12:21:49.334Z,100042.73
2019-01-29T12:24:17.104Z,100042.20
2019-01-29T12:26:44.874Z,100047.04
2019-01-29T12:29:12.625Z,100044.53
2019-01-29T12:31:40.692Z,100043.19
2019-01-29T12:34:08.437Z,100047.65
2019-01-29T12:36:36.491Z,99999.42
2019-01-29T12:39:06.509Z,100044.00
2019-01-29T12:41:34.252Z,100047.58
2019-01-29T12:44:02.029Z,100047.47
2019-01-29T12:46:29.797Z,100047.02
2019-01-29T12:48:57.847Z,100042.80
2019-01-29T12:51:32.028Z,100042.73
2019-01-29T12:53:59.781Z,100036.66
2019-01-29T12:56:27.538Z,100020.66
2019-01-29T12:58:55.307Z,100037.59
2019-01-29T13:01:23.073Z,100039.41
2019-01-29T13:03:50.816Z,100043.70
2019-01-29T13:06:18.597Z,100035.75
2019-01-29T13:08:46.331Z,100035.61
2019-01-29T13:11:14.066Z,100031.23
2019-01-29T13:13:41.858Z,100030.16
2019-01-29T13:16:09.687Z,100021.19
2019-01-29T13:18:37.544Z,100027.44
2019-01-29T13:21:05.297Z,100020.59
2019-01-29T13:23:33.068Z,100026.47
2019-01-29T13:26:01.146Z,100021.50
2019-01-29T13:28:28.902Z,100030.84
2019-01-29T13:30:56.732Z,100023.58
2019-01-29T13:33:24.496Z,100029.41
2019-01-29T13:35:52.262Z,100017.02
2019-01-29T13:38:20.234Z,100020.67
2019-01-29T13:40:47.977Z,100020.08
2019-01-29T13:43:15.745Z,100019.56
2019-01-29T13:45:43.667Z,100019.03
2019-01-29T13:48:11.428Z,100018.15
2019-01-29T13:50:40.612Z,100018.12
2019-01-29T13:53:08.364Z,100011.98
2019-01-29T13:55:36.123Z,100021.17
2019-01-29T13:58:04.157Z,100012.64
2019-01-29T14:00:32.380Z,100011.79
2019-01-29T14:03:00.343Z,100010.00
2019-01-29T14:05:28.105Z,100013.13
2019-01-29T14:07:55.867Z,100020.17
2019-01-29T14:10:23.616Z,100021.51
2019-01-29T14:12:51.365Z,100026.83
2019-01-29T14:15:24.516Z,100024.29
2019-01-29T14:17:52.276Z,100030.86
2019-01-29T14:20:20.055Z,100024.23
2019-01-29T14:22:49.474Z,100021.62
2019-01-29T14:25:17.375Z,100017.56
2019-01-29T14:27:45.129Z,100016.59
2019-01-29T14:30:14.668Z,100011.70
2019-01-29T14:32:42.422Z,100010.73
2019-01-29T14:35:10.222Z,100010.42
2019-01-29T14:38:06.481Z,100012.24
2019-01-29T14:40:34.435Z,100012.95
2019-01-29T14:43:02.275Z,100007.75
2019-01-29T14:45:30.025Z,100011.67
2019-01-29T14:47:57.793Z,100010.73
2019-01-29T14:50:25.633Z,100012.50
2019-01-29T14:52:53.372Z,100010.28
2019-01-29T14:55:21.128Z,100007.24
2019-01-29T14:57:48.878Z,100010.73
2019-01-29T15:00:18.793Z,100009.46
2019-01-29T15:02:46.563Z,100006.70
2019-01-29T15:05:14.391Z,100000.48
2019-01-29T15:07:42.203Z,100006.27
2019-01-29T15:10:10.876Z,100011.25
2019-01-29T15:12:38.689Z,100013.38
2019-01-29T15:15:07.028Z,100007.33
2019-01-29T15:17:42.084Z,100006.45
2019-01-29T15:20:10.541Z,100010.05
2019-01-29T15:22:38.294Z,100003.75
2019-01-29T15:25:06.790Z,100004.20
2019-01-29T15:27:34.999Z,100005.91
2019-01-29T15:30:02.792Z,100016.14
2019-01-29T15:32:30.536Z,100011.23
2019-01-29T15:34:58.267Z,100001.47
2019-01-29T15:37:26.023Z,100007.75
2019-01-29T15:39:53.767Z,100001.08
2019-01-29T15:42:21.526Z,99996.64
2019-01-29T15:44:49.380Z,99993.45
2019-01-29T15:47:17.172Z,100000.22
2019-01-29T15:49:45.251Z,99998.54
2019-01-29T15:52:12.995Z,99996.69
2019-01-29T15:54:40.745Z,99998.09
2019-01-29T15:57:14.089Z,99994.47
2019-01-29T15:59:43.032Z,99991.32
2019-01-29T16:02:07.494Z,99996.21
2019-01-29T16:04:35.253Z,99993.20
2019-01-29T16:07:03.093Z,99998.45
2019-01-29T16:09:30.833Z,99997.12
2019-01-29T16:11:58.599Z,99998.45
2019-01-29T16:14:26.340Z,99989.34
2019-01-29T16:16:54.393Z,99989.25
2019-01-29T16:19:22.385Z,99986.58
2019-01-29T16:21:50.176Z,99985.64
2019-01-29T16:24:17.948Z,99981.62
2019-01-29T16:26:45.970Z,99984.38
2019-01-29T16:29:13.835Z,99988.45
2019-01-29T16:31:41.603Z,99982.31
2019-01-29T16:34:09.393Z,99992.55
2019-01-29T16:36:37.125Z,99989.90
2019-01-29T16:39:06.922Z,99979.50
2019-01-29T16:41:34.696Z,99983.70
2019-01-29T16:44:02.511Z,99987.12
2019-01-29T16:46:30.616Z,99983.11
2019-01-29T16:48:58.363Z,99980.75
2019-01-29T16:51:26.110Z,99978.76
2019-01-29T16:53:53.829Z,99974.81
2019-01-29T16:56:21.592Z,99973.88
2019-01-29T16:58:49.585Z,99971.69
2019-01-29T17:01:17.486Z,99974.75
2019-01-29T17:03:45.366Z,99972.53
2019-01-29T17:06:13.191Z,99970.20
2019-01-29T17:08:41.065Z,99975.03
2019-01-29T17:11:08.828Z,99973.88
2019-01-29T17:13:36.565Z,99971.77
2019-01-29T17:16:04.350Z,99971.39
2019-01-29T17:18:32.101Z,99974.67
2019-01-29T17:20:59.857Z,99966.72
2019-01-29T17:23:27.617Z,99931.03
2019-01-29T17:25:55.618Z,99970.35
2019-01-29T17:28:23.353Z,99971.00
2019-01-29T17:30:51.127Z,99971.94
2019-01-29T17:33:19.392Z,99969.92
2019-01-29T17:35:47.160Z,99968.50
2019-01-29T17:38:15.136Z,99974.58
2019-01-29T17:40:43.274Z,99967.19
2019-01-29T17:43:11.107Z,99965.69
2019-01-29T17:45:40.446Z,99966.38
2019-01-29T17:48:09.004Z,99963.41
2019-01-29T17:50:37.489Z,99969.02
2019-01-29T17:53:05.266Z,99963.39
2019-01-29T17:55:33.778Z,99958.59
2019-01-29T17:58:01.762Z,99958.98
2019-01-29T18:00:31.692Z,99961.11
2019-01-29T18:02:59.522Z,99944.89
2019-01-29T18:05:27.364Z,99951.62
2019-01-29T18:07:55.970Z,99944.97
2019-01-29T18:10:23.725Z,99951.48
2019-01-29T18:12:51.471Z,99952.91
2019-01-29T18:15:20.284Z,99958.92
2019-01-29T18:17:48.320Z,99956.23
2019-01-29T18:20:16.176Z,99967.65
2019-01-29T18:22:43.929Z,99964.18
2019-01-29T18:25:11.819Z,99963.81
2019-01-29T18:27:39.566Z,99934.83
2019-01-29T18:30:08.921Z,99962.33
2019-01-29T18:32:36.815Z,99967.20
2019-01-29T18:35:05.104Z,99969.95
2019-01-29T18:37:33.119Z,99969.95
2019-01-29T18:40:01.109Z,99965.59
2019-01-29T18:42:29.011Z,99967.75
2019-01-29T18:44:56.832Z,99961.59
2019-01-29T18:47:24.664Z,99976.65
2019-01-29T18:49:52.532Z,99960.42
2019-01-29T18:52:20.561Z,99967.44
2019-01-29T18:54:48.580Z,99968.24
2019-01-29T18:57:16.312Z,99967.75
2019-01-29T18:59:44.069Z,99960.17
2019-01-29T19:02:11.836Z,99955.28
2019-01-29T19:04:39.767Z,99959.00
2019-01-29T19:07:07.707Z,99955.42
2019-01-29T19:09:35.458Z,99955.96
2019-01-29T19:12:03.199Z,99959.59
2019-01-29T19:14:30.951Z,99953.38
2019-01-29T19:16:58.705Z,99951.95
2019-01-29T19:19:26.546Z,99956.92
2019-01-29T19:21:54.286Z,99956.84
2019-01-29T19:24:22.029Z,99962.64
2019-01-29T19:26:49.783Z,99957.81
2019-01-29T19:29:17.528Z,99957.36
2019-01-29T19:31:45.472Z,99955.08
2019-01-29T19:34:13.217Z,99954.40
2019-01-29T19:36:40.966Z,99954.84
2019-01-29T19:39:09.021Z,99937.45
2019-01-29T19:41:36.812Z,99958.59
2019-01-29T19:44:04.573Z,99954.34
2019-01-29T19:46:32.296Z,99951.59
2019-01-29T19:49:00.148Z,99955.66
2019-01-29T19:51:28.027Z,99953.52
2019-01-29T19:53:55.976Z,99957.81
2019-01-29T19:56:23.732Z,99961.09
2019-01-29T19:58:51.608Z,99959.73
2019-01-29T20:01:19.505Z,99949.67
2019-01-29T20:03:47.333Z,99955.81
2019-01-29T20:06:15.195Z,99886.86
2019-01-29T20:08:43.150Z,99962.59
2019-01-29T20:11:11.039Z,99958.64
2019-01-29T20:13:39.341Z,99952.85
2019-01-29T20:16:07.427Z,99950.50
2019-01-29T20:18:35.157Z,99951.36
2019-01-29T20:21:02.948Z,99950.42
2019-01-29T20:23:30.697Z,99946.95
2019-01-29T20:25:58.825Z,99951.75
2019-01-29T20:28:26.583Z,99950.05
2019-01-29T20:30:54.316Z,99950.50
2019-01-29T20:33:22.050Z,99948.71
2019-01-29T20:35:49.796Z,99941.80
2019-01-29T20:38:17.560Z,99943.97
2019-01-29T20:40:45.302Z,99941.31
2019-01-29T20:43:13.059Z,99944.47
2019-01-29T20:45:40.799Z,99941.23
2019-01-29T20:48:09.860Z,99944.07
2019-01-29T20:50:37.637Z,99940.55
2019-01-29T20:53:05.378Z,99948.19
2019-01-29T20:55:33.132Z,99946.36
2019-01-29T20:58:00.886Z,99942.36
2019-01-29T21:00:29.656Z,99940.58
2019-01-29T21:02:57.424Z,99901.06
2019-01-29T21:05:25.179Z,99938.65
2019-01-29T21:07:52.915Z,99940.55
2019-01-29T21:10:21.057Z,99938.49
2019-01-29T21:12:48.799Z,99942.93
2019-01-29T21:15:17.168Z,99933.51
2019-01-29T21:17:44.907Z,99928.11
2019-01-29T21:20:16.744Z,99838.93
2019-01-29T21:22:44.502Z,99939.41
2019-01-29T21:25:12.234Z,99934.33
2019-01-29T21:27:40.236Z,99937.91
2019-01-29T21:30:11.034Z,99929.90
2019-01-29T21:32:38.838Z,99928.11
2019-01-29T21:35:06.920Z,99934.92
2019-01-29T21:37:34.663Z,99843.75
2019-01-29T21:40:02.752Z,99929.02
2019-01-29T21:42:30.908Z,99931.61
2019-01-29T21:44:58.672Z,99925.65
2019-01-29T21:47:26.533Z,99929.52
2019-01-29T21:49:54.336Z,99924.78
2019-01-29T21:52:22.143Z,99920.11
2019-01-29T21:54:49.952Z,99911.57
2019-01-29T21:57:17.770Z,99919.47
2019-01-29T21:59:45.709Z,99920.11
2019-01-29T22:02:13.468Z,99921.47
2019-01-29T22:04:41.216Z,99910.34
2019-01-29T22:07:08.955Z,99909.91
2019-01-29T22:09:36.718Z,99908.48
2019-01-29T22:12:04.466Z,99917.52
2019-01-29T22:14:32.307Z,99903.45
2019-01-29T22:17:00.196Z,99904.23
2019-01-29T22:19:30.618Z,99900.31
2019-01-29T22:21:57.652Z,99892.28
2019-01-29T22:24:25.546Z,99897.70
2019-01-29T22:26:53.288Z,99899.58
2019-01-29T22:29:23.260Z,99899.72
2019-01-29T22:31:50.605Z,99900.17
2019-01-29T22:34:18.580Z,99889.55
2019-01-29T22:36:46.341Z,99891.63
2019-01-29T22:39:14.085Z,99897.64
2019-01-29T22:41:41.848Z,99891.05
2019-01-29T22:44:09.670Z,99888.50
2019-01-29T22:46:37.408Z,99890.69
2019-01-29T22:49:08.537Z,99886.20
2019-01-29T22:51:36.337Z,99891.34
2019-01-29T22:54:04.148Z,99889.13
2019-01-29T22:56:31.947Z,99880.66
2019-01-29T22:58:59.943Z,99883.16
2019-01-29T23:01:35.077Z,99895.12
2019-01-29T23:04:22.348Z,99878.53
2019-01-29T23:06:54.660Z,99874.58
2019-01-29T23:09:22.419Z,99863.85
2019-01-29T23:11:50.158Z,99864.47
2019-01-29T23:14:17.905Z,99865.71
2019-01-29T23:16:45.677Z,99858.16
2019-01-29T23:19:13.507Z,99855.12
2019-01-29T23:21:41.225Z,99851.89
2019-01-29T23:24:08.988Z,99844.53
2019-01-29T23:26:36.719Z,99843.80
2019-01-29T23:29:04.889Z,99733.03
2019-01-29T23:31:32.877Z,99837.70
2019-01-29T23:34:00.595Z,99839.41
2019-01-29T23:36:28.368Z,99838.67
2019-01-29T23:38:56.508Z,99802.30
2019-01-29T23:41:24.287Z,99825.22
2019-01-29T23:43:52.055Z,99831.45
2019-01-29T23:46:19.811Z,99831.77
2019-01-29T23:48:47.577Z,99827.75
2019-01-29T23:51:15.309Z,99831.44
2019-01-29T23:53:43.140Z,99827.85
2019-01-29T23:56:11.017Z,99834.92
2019-01-29T23:58:38.987Z,99825.87
